createdAt,value
2023-03-23T15:58:14.216Z,17.04
2023-03-23T16:00:42.560Z,16.99
2023-03-23T16:03:13.318Z,16.94
2023-03-23T16:05:39.956Z,16.89
2023-03-23T16:08:09.970Z,16.83
2023-03-23T16:10:36.512Z,16.77
2023-03-23T16:13:05.296Z,16.72
2023-03-23T16:15:31.971Z,16.68
2023-03-23T16:17:59.020Z,16.65
2023-03-23T16:20:25.904Z,16.61
2023-03-23T16:22:52.862Z,16.55
2023-03-23T16:25:19.707Z,16.51
2023-03-23T16:27:51.797Z,16.49
2023-03-23T16:30:24.542Z,16.45
2023-03-23T16:32:51.501Z,16.40
2023-03-23T16:35:18.996Z,16.35
2023-03-23T16:37:47.145Z,16.34
2023-03-23T16:40:14.321Z,16.29
2023-03-23T16:42:41.161Z,16.24
2023-03-23T16:45:08.162Z,16.15
2023-03-23T16:47:35.520Z,16.03
2023-03-23T16:50:02.325Z,15.94
2023-03-23T16:52:28.951Z,15.87
2023-03-23T16:54:55.702Z,15.81
2023-03-23T16:57:22.293Z,15.73
2023-03-23T16:59:50.386Z,15.70
2023-03-23T17:02:17.084Z,15.65
2023-03-23T17:04:45.312Z,15.57
2023-03-23T17:07:13.039Z,15.52
2023-03-23T17:09:41.671Z,15.50
2023-03-23T17:12:09.193Z,15.47
2023-03-23T17:14:35.927Z,15.40
2023-03-23T17:17:02.588Z,15.36
2023-03-23T17:19:29.165Z,15.32
2023-03-23T17:21:55.860Z,15.30
2023-03-23T17:24:22.418Z,15.25
2023-03-23T17:26:49.034Z,15.21
2023-03-23T17:29:15.731Z,15.16
2023-03-23T17:31:43.343Z,15.13
2023-03-23T17:34:09.952Z,15.09
2023-03-23T17:36:36.506Z,15.06
2023-03-23T17:39:03.557Z,15.01
2023-03-23T17:41:30.096Z,14.99
2023-03-23T17:43:56.625Z,14.96
2023-03-23T17:46:23.422Z,14.94
2023-03-23T17:48:50.124Z,14.92
2023-03-23T17:51:16.733Z,14.90
2023-03-23T17:53:43.300Z,14.88
2023-03-23T17:56:10.418Z,14.84
2023-03-23T17:58:37.328Z,14.80
2023-03-23T18:01:04.124Z,14.75
2023-03-23T18:03:30.847Z,14.73
2023-03-23T18:06:01.229Z,14.71
2023-03-23T18:08:28.521Z,14.69
2023-03-23T18:10:57.119Z,14.65
2023-03-23T18:13:26.295Z,14.63
2023-03-23T18:15:54.227Z,14.61
2023-03-23T18:18:21.048Z,14.60
2023-03-23T18:20:47.800Z,14.58
2023-03-23T18:23:14.495Z,14.58
2023-03-23T18:25:41.821Z,14.59
2023-03-23T18:28:08.602Z,14.60
2023-03-23T18:30:35.196Z,14.61
2023-03-23T18:33:01.963Z,14.60
2023-03-23T18:35:28.669Z,14.61
2023-03-23T18:37:55.784Z,14.61
2023-03-23T18:40:22.486Z,14.60
2023-03-23T18:42:49.279Z,14.60
2023-03-23T18:45:22.847Z,14.62
2023-03-23T18:47:59.647Z,14.61
2023-03-23T18:51:34.647Z,14.62
2023-03-23T18:57:53.796Z,14.58
2023-03-23T19:00:26.353Z,14.55
2023-03-23T19:06:25.430Z,14.53
2023-03-23T19:09:49.820Z,14.52
2023-03-23T19:17:12.742Z,14.45
2023-03-23T19:20:23.599Z,14.39
2023-03-23T19:23:58.931Z,14.34
2023-03-23T19:27:11.826Z,14.30
2023-03-23T19:29:50.696Z,14.26
2023-03-23T19:33:03.748Z,14.22
2023-03-23T19:35:35.715Z,14.15
2023-03-23T19:38:10.279Z,14.13
2023-03-23T19:40:42.039Z,14.12
2023-03-23T19:43:09.880Z,14.09
2023-03-23T19:45:37.132Z,14.09
2023-03-23T19:48:04.219Z,14.08
2023-03-23T19:50:33.398Z,14.03
2023-03-23T19:53:00.610Z,14.04
2023-03-23T19:55:34.037Z,14.02
2023-03-23T19:58:04.575Z,14.02
2023-03-23T20:01:01.106Z,14.01
2023-03-23T20:03:28.514Z,13.99
2023-03-23T20:06:02.944Z,13.99
2023-03-23T20:08:31.736Z,13.94
2023-03-23T20:11:12.627Z,13.93
2023-03-23T20:13:40.794Z,13.90
2023-03-23T20:16:07.992Z,13.87
2023-03-23T20:18:34.644Z,13.85
2023-03-23T20:21:15.464Z,13.81
2023-03-23T20:23:43.047Z,13.78
2023-03-23T20:26:13.349Z,13.76
2023-03-23T20:28:40.810Z,13.73
2023-03-23T20:31:16.798Z,13.70
2023-03-23T20:33:59.939Z,13.70
2023-03-23T20:36:36.113Z,13.68
2023-03-23T20:39:10.711Z,13.67
2023-03-23T20:41:38.824Z,13.66
2023-03-23T20:44:07.183Z,13.68
2023-03-23T20:46:35.240Z,13.68
2023-03-23T20:49:02.346Z,13.69
2023-03-23T20:51:28.945Z,13.68
2023-03-23T20:53:55.726Z,13.68
2023-03-23T20:56:22.545Z,13.67
2023-03-23T20:58:49.175Z,13.66
2023-03-23T21:01:16.198Z,13.64
2023-03-23T21:03:43.922Z,13.62
2023-03-23T21:06:10.983Z,13.60
2023-03-23T21:08:40.107Z,13.61
2023-03-23T21:11:09.285Z,13.60
2023-03-23T21:13:36.486Z,13.57
2023-03-23T21:16:04.230Z,13.57
2023-03-23T21:18:31.754Z,13.55
2023-03-23T21:20:59.210Z,13.53
2023-03-23T21:23:26.749Z,13.48
2023-03-23T21:25:54.657Z,13.46
2023-03-23T21:28:22.382Z,13.42
2023-03-23T21:30:52.749Z,13.43
2023-03-23T21:33:20.087Z,13.40
2023-03-23T21:35:46.651Z,13.38
2023-03-23T21:38:20.010Z,13.37
2023-03-23T21:40:46.818Z,13.36
2023-03-23T21:43:16.680Z,13.33
2023-03-23T21:45:45.227Z,13.32
2023-03-23T21:48:13.396Z,13.27
2023-03-23T21:50:43.973Z,13.26
2023-03-23T21:53:13.154Z,13.25
2023-03-23T21:55:42.538Z,13.22
2023-03-23T21:58:09.775Z,13.21
2023-03-23T22:00:36.772Z,13.19
2023-03-23T22:03:04.945Z,13.20
2023-03-23T22:05:32.539Z,13.18
2023-03-23T22:07:59.274Z,13.17
2023-03-23T22:10:26.029Z,13.17
2023-03-23T22:12:55.090Z,13.16
2023-03-23T22:15:27.835Z,13.14
2023-03-23T22:17:55.891Z,13.13
2023-03-23T22:20:23.281Z,13.11
2023-03-23T22:22:49.910Z,13.10
2023-03-23T22:25:17.227Z,13.11
2023-03-23T22:27:44.879Z,13.10
2023-03-23T22:30:12.992Z,13.07
2023-03-23T22:32:39.566Z,13.07
2023-03-23T22:35:07.248Z,13.05
2023-03-23T22:37:34.693Z,13.05
2023-03-23T22:40:01.488Z,13.05
2023-03-23T22:42:28.069Z,13.05
2023-03-23T22:44:55.372Z,13.04
2023-03-23T22:47:22.336Z,13.01
2023-03-23T22:49:48.875Z,13.01
2023-03-23T22:52:15.442Z,12.99
2023-03-23T22:54:42.537Z,12.99
2023-03-23T22:57:09.217Z,12.94
2023-03-23T22:59:35.857Z,12.93
2023-03-23T23:02:02.458Z,12.91
2023-03-23T23:04:29.885Z,12.87
2023-03-23T23:07:06.665Z,12.85
2023-03-23T23:09:36.834Z,12.85
2023-03-23T23:12:03.454Z,12.83
2023-03-23T23:14:29.970Z,12.83
2023-03-23T23:16:56.589Z,12.81
2023-03-23T23:19:23.147Z,12.80
2023-03-23T23:21:50.467Z,12.78
2023-03-23T23:24:18.147Z,12.77
2023-03-23T23:26:45.104Z,12.77
2023-03-23T23:29:11.647Z,12.74
2023-03-23T23:31:38.568Z,12.71
2023-03-23T23:34:05.964Z,12.68
2023-03-23T23:36:32.511Z,12.65
2023-03-23T23:39:00.613Z,12.65
2023-03-23T23:41:28.098Z,12.66
2023-03-23T23:43:54.673Z,12.65
2023-03-23T23:46:21.743Z,12.67
2023-03-23T23:48:48.560Z,12.66
2023-03-23T23:51:16.655Z,12.65
2023-03-23T23:53:44.366Z,12.64
2023-03-23T23:56:11.808Z,12.67
2023-03-23T23:58:38.677Z,12.66
